Time;durP1;ratioP1;P1;durP2;ratioP2;P2;SDS_P1;SDS_P2;PMS_P1;PMS_P2;Temp;Humidity;BMP_temperature;BMP_pressure;BME280_temperature;BME280_humidity;BME280_pressure;Samples;Min_cycle;Max_cycle;Signal;HPM_P1;HPM_P2
2022/03/17 00:00:18;;;;;;;10.50;2.90;;;7.90;99.90;;;;;;5074665;28;20325;-82
2022/03/17 00:02:45;;;;;;;9.87;2.80;;;7.80;99.90;;;;;;5075487;28;20279;-82
2022/03/17 00:05:14;;;;;;;13.70;3.07;;;7.90;99.90;;;;;;5092436;28;20853;-82
2022/03/17 00:07:43;;;;;;;14.97;3.37;;;7.80;99.90;;;;;;5075956;28;20284;-82
2022/03/17 00:10:13;;;;;;;10.97;2.87;;;7.90;99.90;;;;;;5092465;28;20211;-82
2022/03/17 00:12:41;;;;;;;11.67;2.87;;;7.70;99.90;;;;;;5081852;28;20271;-82
2022/03/17 00:15:08;;;;;;;11.00;2.50;;;7.70;99.90;;;;;;5083937;28;20286;-82
2022/03/17 00:17:36;;;;;;;11.87;3.03;;;7.80;99.90;;;;;;5101727;28;20262;-82
2022/03/17 00:20:06;;;;;;;12.40;2.83;;;7.60;99.90;;;;;;5093156;28;20240;-82
2022/03/17 00:22:35;;;;;;;10.77;3.27;;;7.60;99.90;;;;;;5120756;28;20194;-81
2022/03/17 00:25:02;;;;;;;8.10;2.70;;;7.70;99.90;;;;;;5092751;28;20244;-82
2022/03/17 00:27:29;;;;;;;10.07;3.47;;;;;;;;;;5092259;28;20190;-82
2022/03/17 00:29:56;;;;;;;6.47;2.30;;;7.50;99.90;;;;;;5095154;28;20227;-82
2022/03/17 00:32:24;;;;;;;12.07;2.80;;;;;;;;;;5088326;28;20196;-81
2022/03/17 00:37:40;;;;;;;6.70;2.07;;;;;;;;;;5073438;28;20282;-82
2022/03/17 00:40:08;;;;;;;7.57;2.03;;;;;;;;;;5092256;28;20237;-82
2022/03/17 00:42:35;;;;;;;12.27;2.40;;;;;;;;;;5091156;28;20280;-82
2022/03/17 00:45:04;;;;;;;10.77;1.77;;;;;;;;;;5086144;28;20230;-82
2022/03/17 00:47:31;;;;;;;6.20;1.50;;;;;;;;;;5088392;28;20194;-81
2022/03/17 00:49:58;;;;;;;9.20;2.10;;;7.40;99.90;;;;;;5087002;28;20202;-82
2022/03/17 00:52:25;;;;;;;7.23;1.73;;;7.50;99.90;;;;;;5083540;28;20195;-81
2022/03/17 00:54:54;;;;;;;6.50;1.60;;;7.40;99.90;;;;;;5089151;28;20238;-81
2022/03/17 00:57:20;;;;;;;10.07;1.80;;;7.50;99.90;;;;;;5081479;28;20250;-82
2022/03/17 00:59:48;;;;;;;4.90;1.60;;;7.40;99.90;;;;;;5085476;28;20212;-82
2022/03/17 01:02:16;;;;;;;7.50;1.63;;;7.30;99.90;;;;;;5081226;28;20208;-81
2022/03/17 01:04:43;;;;;;;9.23;1.87;;;7.30;99.90;;;;;;5082963;28;20285;-82
2022/03/17 01:07:10;;;;;;;8.77;2.27;;;7.30;99.90;;;;;;5082546;28;20279;-81
2022/03/17 01:09:37;;;;;;;6.53;2.30;;;7.30;99.90;;;;;;5076767;28;20282;-82
2022/03/17 01:12:06;;;;;;;10.20;2.00;;;7.50;99.90;;;;;;5087950;28;20315;-82
2022/03/17 01:14:33;;;;;;;9.47;1.70;;;7.40;99.90;;;;;;5076454;28;20635;-82
2022/03/17 01:17:00;;;;;;;7.60;1.90;;;7.30;99.90;;;;;;5083772;28;20311;-82
2022/03/17 01:19:27;;;;;;;8.17;1.83;;;7.30;99.90;;;;;;5084838;28;20290;-82
2022/03/17 01:21:54;;;;;;;9.47;1.80;;;7.30;99.90;;;;;;5086578;28;20729;-82
2022/03/17 01:24:21;;;;;;;7.77;2.00;;;7.30;99.90;;;;;;5094594;28;20202;-82
2022/03/17 01:26:48;;;;;;;8.67;2.30;;;7.30;99.90;;;;;;5095733;28;20659;-82
2022/03/17 01:29:16;;;;;;;12.03;2.00;;;7.40;99.90;;;;;;5083866;28;20229;-82
2022/03/17 01:31:45;;;;;;;12.93;2.20;;;7.20;99.90;;;;;;5074587;28;20230;-81
2022/03/17 01:34:12;;;;;;;13.33;2.10;;;7.30;99.90;;;;;;5091566;28;20626;-82
2022/03/17 01:36:39;;;;;;;8.27;1.87;;;7.20;99.90;;;;;;5089576;28;20305;-81
2022/03/17 01:39:06;;;;;;;10.13;1.83;;;7.00;99.90;;;;;;5089860;28;20277;-82
2022/03/17 01:41:33;;;;;;;12.37;2.40;;;6.90;99.90;;;;;;5088824;28;20233;-81
2022/03/17 01:44:00;;;;;;;8.53;1.80;;;7.10;99.90;;;;;;5094241;28;20305;-81
2022/03/17 01:46:28;;;;;;;7.87;1.60;;;6.90;99.90;;;;;;5096765;28;20230;-82
2022/03/17 01:48:55;;;;;;;7.53;1.93;;;6.90;99.90;;;;;;5093714;28;20232;-81
2022/03/17 01:51:22;;;;;;;7.23;1.60;;;6.90;99.90;;;;;;5106776;28;20277;-81
2022/03/17 01:53:49;;;;;;;11.30;1.83;;;7.00;99.90;;;;;;5102049;28;20226;-82
2022/03/17 01:56:17;;;;;;;9.90;2.03;;;6.90;99.90;;;;;;5101172;28;20670;-82
2022/03/17 01:58:45;;;;;;;8.23;1.90;;;7.00;99.90;;;;;;5094240;28;20304;-82
2022/03/17 02:01:12;;;;;;;10.07;1.70;;;;;;;;;;5074760;28;20206;-81
2022/03/17 02:03:43;;;;;;;7.70;1.80;;;;;;;;;;5078082;28;20255;-81
2022/03/17 02:06:11;;;;;;;8.53;1.63;;;;;;;;;;5083907;28;20198;-81
2022/03/17 02:08:38;;;;;;;7.50;1.90;;;;;;;;;;5083896;28;20291;-81
2022/03/17 02:13:51;;;;;;;11.53;2.33;;;;;;;;;;5074944;28;20206;-81
2022/03/17 02:16:18;;;;;;;11.10;2.20;;;;;;;;;;5082631;28;20226;-82
2022/03/17 02:18:47;;;;;;;6.57;2.10;;;6.90;99.90;;;;;;5092413;28;20224;-82
2022/03/17 02:21:14;;;;;;;8.60;1.70;;;;;;;;;;5089627;28;20321;-82
2022/03/17 02:26:29;;;;;;;8.00;1.93;;;;;;;;;;5079058;28;20228;-82
2022/03/17 02:28:58;;;;;;;7.50;1.73;;;;;;;;;;5085461;28;20286;-82
2022/03/17 02:31:26;;;;;;;10.00;1.83;;;;;;;;;;5082977;28;20202;-81
2022/03/17 02:33:54;;;;;;;9.17;2.03;;;;;;;;;;5081522;28;20290;-81
2022/03/17 02:36:22;;;;;;;6.47;1.97;;;;;;;;;;5087509;28;20221;-82
2022/03/17 02:38:52;;;;;;;8.30;1.93;;;;;;;;;;5083241;28;20242;-82
2022/03/17 02:41:23;;;;;;;10.00;2.23;;;;;;;;;;5072729;28;20235;-81
2022/03/17 02:43:52;;;;;;;9.43;2.03;;;;;;;;;;5082980;28;20191;-82
2022/03/17 02:46:21;;;;;;;8.23;2.43;;;;;;;;;;5074150;28;20289;-82
2022/03/17 02:48:49;;;;;;;7.60;2.00;;;;;;;;;;5092495;28;20201;-81
2022/03/17 02:51:17;;;;;;;6.73;2.00;;;;;;;;;;5083575;28;20234;-82
2022/03/17 02:53:44;;;;;;;6.40;1.83;;;;;;;;;;5072738;28;20667;-81
2022/03/17 02:56:13;;;;;;;10.53;2.53;;;;;;;;;;5089725;28;20248;-81
2022/03/17 02:58:41;;;;;;;10.53;2.10;;;;;;;;;;5089988;28;20261;-81
2022/03/17 03:01:09;;;;;;;8.73;2.13;;;;;;;;;;5072572;28;20237;-81
2022/03/17 03:03:37;;;;;;;7.57;2.27;;;;;;;;;;5085945;28;20218;-81
2022/03/17 03:06:04;;;;;;;10.13;2.63;;;;;;;;;;5086438;28;20696;-81
2022/03/17 03:08:33;;;;;;;10.10;2.30;;;;;;;;;;5081122;28;20294;-81
2022/03/17 03:11:01;;;;;;;6.53;2.07;;;;;;;;;;5092725;28;21169;-81
2022/03/17 03:13:31;;;;;;;7.27;2.53;;;;;;;;;;5092472;28;20651;-82
2022/03/17 03:15:59;;;;;;;10.87;2.23;;;;;;;;;;5089042;28;20277;-82
2022/03/17 03:18:27;;;;;;;9.50;2.23;;;;;;;;;;5081026;28;20260;-82
2022/03/17 03:20:55;;;;;;;6.83;2.20;;;;;;;;;;5086098;28;20795;-81
2022/03/17 03:23:24;;;;;;;9.87;2.33;;;;;;;;;;5082972;28;20235;-82
2022/03/17 03:25:50;;;;;;;8.47;2.17;;;6.00;99.90;;;;;;5073059;28;20285;-81
2022/03/17 03:28:17;;;;;;;10.27;2.10;;;5.90;99.90;;;;;;5084972;28;20234;-82
2022/03/17 03:30:47;;;;;;;8.37;2.10;;;6.10;99.90;;;;;;5089306;28;20249;-81
2022/03/17 03:33:14;;;;;;;7.60;1.80;;;5.90;99.90;;;;;;5082075;28;20260;-82
2022/03/17 03:38:25;;;;;;;7.57;1.40;;;6.10;99.90;;;;;;5092192;28;20220;-82
2022/03/17 03:40:52;;;;;;;6.50;1.70;;;6.00;99.90;;;;;;5095110;28;20278;-81
2022/03/17 03:43:19;;;;;;;5.13;1.43;;;6.00;99.90;;;;;;5084157;28;20629;-82
2022/03/17 03:45:50;;;;;;;9.07;1.43;;;5.90;99.90;;;;;;5101306;28;20208;-82
2022/03/17 03:48:17;;;;;;;6.50;1.60;;;6.00;99.90;;;;;;5101841;28;20245;-81
2022/03/17 03:50:46;;;;;;;9.63;1.63;;;5.90;99.90;;;;;;5084766;28;20228;-81
2022/03/17 03:53:13;;;;;;;9.03;1.90;;;6.00;99.90;;;;;;5093340;28;20206;-82
2022/03/17 03:55:40;;;;;;;8.30;1.87;;;5.80;99.90;;;;;;5072118;28;20224;-82
2022/03/17 03:58:07;;;;;;;5.47;1.63;;;5.70;99.90;;;;;;5072876;28;20767;-81
2022/03/17 04:00:35;;;;;;;8.43;1.50;;;5.60;99.90;;;;;;5073353;28;20209;-81
2022/03/17 04:03:04;;;;;;;5.50;1.50;;;5.60;99.90;;;;;;5091600;28;20278;-81
2022/03/17 04:05:33;;;;;;;7.77;1.60;;;5.70;99.90;;;;;;5089085;28;20207;-81
2022/03/17 04:08:00;;;;;;;7.57;1.20;;;5.70;99.90;;;;;;5109602;28;20207;-82
2022/03/17 04:10:29;;;;;;;6.77;1.43;;;;;;;;;;5074304;28;20216;-81
2022/03/17 04:12:58;;;;;;;6.17;1.50;;;5.40;99.90;;;;;;5104369;28;20232;-81
2022/03/17 04:15:25;;;;;;;5.80;1.30;;;5.40;99.90;;;;;;5084606;28;20925;-81
2022/03/17 04:17:52;;;;;;;7.93;1.43;;;5.60;99.90;;;;;;5095343;28;20218;-82
2022/03/17 04:20:22;;;;;;;4.97;1.33;;;5.50;99.90;;;;;;5076045;28;20229;-81
2022/03/17 04:22:49;;;;;;;6.60;1.70;;;5.40;99.90;;;;;;5074082;28;20204;-82
2022/03/17 04:25:16;;;;;;;6.43;1.50;;;5.30;99.90;;;;;;5087729;28;20235;-82
2022/03/17 04:27:43;;;;;;;7.50;1.57;;;5.10;99.90;;;;;;5072721;28;20287;-82
2022/03/17 04:30:10;;;;;;;4.37;1.53;;;5.40;99.90;;;;;;5077539;28;20223;-81
2022/03/17 04:32:37;;;;;;;6.80;1.40;;;5.10;99.90;;;;;;5088551;28;20329;-81
2022/03/17 04:35:06;;;;;;;8.03;1.63;;;5.30;99.90;;;;;;5095586;28;20633;-81
2022/03/17 04:37:36;;;;;;;6.17;1.50;;;;;;;;;;5091980;28;20206;-81
2022/03/17 04:40:05;;;;;;;6.77;1.50;;;5.50;99.90;;;;;;5071559;28;20283;-82
2022/03/17 04:42:31;;;;;;;5.77;1.23;;;5.30;99.90;;;;;;5074153;28;20296;-81
2022/03/17 04:44:58;;;;;;;5.97;1.37;;;5.10;99.90;;;;;;5081638;28;20735;-81
2022/03/17 04:47:25;;;;;;;5.97;1.50;;;5.20;99.90;;;;;;5093314;28;21288;-82
2022/03/17 04:49:52;;;;;;;5.77;1.53;;;5.00;99.90;;;;;;5087173;28;20322;-81
2022/03/17 04:55:07;;;;;;;7.17;1.37;;;4.20;99.90;;;;;;5115550;28;20194;-81
2022/03/17 04:57:34;;;;;;;4.93;1.40;;;5.10;99.90;;;;;;5115532;28;20283;-81
2022/03/17 05:00:02;;;;;;;4.40;1.47;;;5.00;99.90;;;;;;5095053;28;20713;-81
2022/03/17 05:02:28;;;;;;;5.77;1.33;;;4.80;99.90;;;;;;5094376;28;20753;-81
2022/03/17 05:04:55;;;;;;;6.47;1.80;;;4.70;99.90;;;;;;5090867;28;20218;-82
2022/03/17 05:07:22;;;;;;;6.07;2.00;;;4.70;99.90;;;;;;5100877;28;20294;-81
2022/03/17 05:09:49;;;;;;;6.60;1.47;;;4.80;99.90;;;;;;5094460;28;20597;-81
2022/03/17 05:12:18;;;;;;;4.07;1.47;;;4.80;99.90;;;;;;5095436;28;20803;-81
2022/03/17 05:14:44;;;;;;;8.63;1.80;;;4.70;99.90;;;;;;5090129;28;20289;-82
2022/03/17 05:17:11;;;;;;;8.50;1.50;;;4.60;99.90;;;;;;5090156;28;20245;-81
2022/03/17 05:19:38;;;;;;;5.53;1.30;;;4.50;99.90;;;;;;5075913;28;20745;-81
2022/03/17 05:22:06;;;;;;;3.97;1.37;;;4.60;99.90;;;;;;5083078;28;20259;-81
2022/03/17 05:24:33;;;;;;;6.03;1.50;;;4.70;99.90;;;;;;5091326;28;20236;-80
2022/03/17 05:27:00;;;;;;;3.53;1.53;;;4.70;99.90;;;;;;5089021;28;20200;-81
2022/03/17 05:29:29;;;;;;;4.20;1.37;;;4.60;99.90;;;;;;5089360;28;20227;-80
2022/03/17 05:31:56;;;;;;;5.10;1.27;;;4.50;99.90;;;;;;5075712;28;20369;-81
2022/03/17 05:34:23;;;;;;;4.00;1.60;;;4.50;99.90;;;;;;5080343;28;20209;-81
2022/03/17 05:36:49;;;;;;;4.57;1.37;;;4.30;99.90;;;;;;5077455;28;20290;-81
2022/03/17 05:39:17;;;;;;;5.80;1.23;;;4.60;99.90;;;;;;5091397;28;20655;-81
2022/03/17 05:41:44;;;;;;;6.87;1.53;;;4.60;99.90;;;;;;5090589;28;20199;-81
2022/03/17 05:44:10;;;;;;;8.40;1.77;;;4.40;99.90;;;;;;5087323;28;20328;-81
2022/03/17 05:46:39;;;;;;;5.37;1.60;;;4.30;99.90;;;;;;5098954;28;20227;-80
2022/03/17 05:49:06;;;;;;;3.43;1.43;;;4.20;99.90;;;;;;5094353;28;20237;-81
2022/03/17 05:51:32;;;;;;;6.33;1.60;;;4.00;99.90;;;;;;5087739;28;20261;-81
2022/03/17 05:53:59;;;;;;;5.90;1.53;;;4.00;99.90;;;;;;5093671;28;20258;-81
2022/03/17 05:56:26;;;;;;;5.23;1.70;;;4.30;99.90;;;;;;5089563;28;20718;-82
2022/03/17 05:58:53;;;;;;;8.43;2.60;;;4.30;99.90;;;;;;5094098;28;20245;-81
2022/03/17 06:01:21;;;;;;;6.40;1.90;;;4.40;99.90;;;;;;5096562;28;20208;-81
2022/03/17 06:03:51;;;;;;;7.27;1.60;;;4.20;99.90;;;;;;5083201;28;20198;-81
2022/03/17 06:06:18;;;;;;;7.23;1.50;;;4.40;99.90;;;;;;5097615;28;20222;-80
2022/03/17 06:08:44;;;;;;;6.87;1.73;;;4.10;99.90;;;;;;5093371;28;20241;-83
2022/03/17 06:11:11;;;;;;;4.57;1.43;;;4.30;99.90;;;;;;5082145;28;20222;-84
2022/03/17 06:13:38;;;;;;;7.87;1.87;;;4.10;99.90;;;;;;5084815;28;20226;-82
2022/03/17 06:16:06;;;;;;;7.67;1.70;;;4.10;99.90;;;;;;5091255;28;20271;-81
2022/03/17 06:18:33;;;;;;;7.73;1.90;;;4.00;99.90;;;;;;5093268;28;20228;-82
2022/03/17 06:21:01;;;;;;;8.03;1.87;;;4.10;99.90;;;;;;5103525;27;20768;-82
2022/03/17 06:23:28;;;;;;;4.00;1.83;;;4.00;99.90;;;;;;5076575;28;20192;-80
2022/03/17 06:25:55;;;;;;;5.50;1.70;;;3.80;99.90;;;;;;5082372;28;20279;-83
2022/03/17 06:28:22;;;;;;;8.37;2.00;;;3.80;99.90;;;;;;5073046;28;20345;-83
2022/03/17 06:30:51;;;;;;;5.53;1.60;;;4.00;99.90;;;;;;5087608;28;20278;-82
2022/03/17 06:33:18;;;;;;;6.20;1.70;;;3.80;99.90;;;;;;5079678;28;20203;-83
2022/03/17 06:35:45;;;;;;;7.57;1.70;;;3.90;99.90;;;;;;5089362;28;20602;-82
2022/03/17 06:38:13;;;;;;;7.37;1.80;;;3.70;99.90;;;;;;5084437;28;20709;-80
2022/03/17 06:40:41;;;;;;;4.60;1.47;;;3.90;99.90;;;;;;5086760;28;20711;-82
2022/03/17 06:43:08;;;;;;;5.17;1.60;;;4.00;99.90;;;;;;5089897;28;20186;-81
2022/03/17 06:45:35;;;;;;;4.73;1.80;;;3.70;99.90;;;;;;5080919;28;20230;-82
2022/03/17 06:48:02;;;;;;;7.20;1.60;;;4.00;99.90;;;;;;5092383;28;20270;-83
2022/03/17 06:50:30;;;;;;;5.67;1.80;;;4.00;99.90;;;;;;5090142;28;20264;-81
2022/03/17 06:52:57;;;;;;;7.30;1.50;;;3.80;99.90;;;;;;5083563;28;20285;-81
2022/03/17 06:55:25;;;;;;;4.03;1.60;;;4.00;99.90;;;;;;5087046;28;20202;-80
2022/03/17 06:57:52;;;;;;;6.20;1.50;;;4.00;99.90;;;;;;5091058;28;20253;-82
2022/03/17 07:00:20;;;;;;;6.33;1.70;;;3.90;99.90;;;;;;5079608;28;20713;-80
2022/03/17 07:02:48;;;;;;;9.83;1.70;;;4.10;99.90;;;;;;5084577;28;20224;-80
2022/03/17 07:05:18;;;;;;;4.30;1.40;;;4.10;99.90;;;;;;5078668;28;20207;-80
2022/03/17 07:07:45;;;;;;;5.67;1.83;;;4.10;99.90;;;;;;5082982;28;20279;-81
2022/03/17 07:10:15;;;;;;;6.00;1.70;;;4.10;99.90;;;;;;5081380;28;20227;-81
2022/03/17 07:12:44;;;;;;;5.80;1.83;;;4.20;99.90;;;;;;5086742;28;20638;-80
2022/03/17 07:15:12;;;;;;;4.17;1.67;;;4.30;99.90;;;;;;5083972;28;20257;-82
2022/03/17 07:17:41;;;;;;;12.53;2.30;;;4.20;99.90;;;;;;5078149;28;20640;-81
2022/03/17 07:20:09;;;;;;;5.90;2.53;;;4.30;99.90;;;;;;5081909;28;20246;-81
2022/03/17 07:22:39;;;;;;;7.73;2.17;;;4.50;99.90;;;;;;5080696;28;20223;-81
2022/03/17 07:25:09;;;;;;;5.40;1.97;;;4.60;99.90;;;;;;5089100;28;20236;-81
2022/03/17 07:27:40;;;;;;;7.63;1.73;;;4.50;99.90;;;;;;5085526;28;20279;-81
2022/03/17 07:30:11;;;;;;;7.93;1.90;;;4.60;99.90;;;;;;5076299;28;20632;-80
2022/03/17 07:32:38;;;;;;;7.40;1.80;;;4.60;99.90;;;;;;5082557;28;20285;-80
2022/03/17 07:35:10;;;;;;;4.17;1.80;;;4.70;99.90;;;;;;5084806;28;20211;-81
2022/03/17 07:37:37;;;;;;;5.37;2.30;;;4.70;99.90;;;;;;5084635;28;20561;-80
2022/03/17 07:40:10;;;;;;;7.43;2.50;;;4.80;99.90;;;;;;5086654;28;20269;-81
2022/03/17 07:42:37;;;;;;;6.57;2.07;;;4.90;99.90;;;;;;5081397;28;20224;-80
2022/03/17 07:45:05;;;;;;;6.93;1.90;;;5.20;99.90;;;;;;5086523;28;20230;-81
2022/03/17 07:47:34;;;;;;;7.67;2.50;;;5.10;99.90;;;;;;5096700;28;20669;-81
2022/03/17 07:50:02;;;;;;;6.27;2.00;;;5.40;99.90;;;;;;5089777;28;20204;-80
2022/03/17 07:52:29;;;;;;;5.90;1.80;;;5.30;99.90;;;;;;5083738;28;20227;-81
2022/03/17 07:54:56;;;;;;;3.53;1.50;;;5.30;99.90;;;;;;5083234;28;20229;-81
2022/03/17 07:57:23;;;;;;;6.87;2.00;;;5.30;99.90;;;;;;5090036;28;20233;-81
2022/03/17 07:59:50;;;;;;;4.47;1.93;;;5.60;99.90;;;;;;5087151;28;20218;-81
2022/03/17 08:02:19;;;;;;;8.00;2.23;;;5.50;99.90;;;;;;5089759;28;20409;-83
2022/03/17 08:04:50;;;;;;;6.90;2.07;;;5.50;99.90;;;;;;5078902;28;20257;-83
2022/03/17 08:07:17;;;;;;;8.90;2.20;;;5.70;99.90;;;;;;5079802;28;20203;-83
2022/03/17 08:09:45;;;;;;;6.10;2.00;;;5.70;99.90;;;;;;5084180;28;20266;-82
2022/03/17 08:12:12;;;;;;;7.40;2.57;;;6.00;99.90;;;;;;5087741;28;20196;-82
2022/03/17 08:14:39;;;;;;;119.17;18.27;;;5.90;99.90;;;;;;5074797;28;20244;-82
2022/03/17 08:17:09;;;;;;;9.03;2.80;;;5.90;99.90;;;;;;5089159;28;20269;-82
2022/03/17 08:19:36;;;;;;;6.57;2.30;;;6.20;99.90;;;;;;5089388;28;20291;-82
2022/03/17 08:22:07;;;;;;;11.60;2.57;;;6.20;99.90;;;;;;5089737;28;20240;-81
2022/03/17 08:24:34;;;;;;;7.57;2.40;;;6.30;99.90;;;;;;5084880;28;20202;-81
2022/03/17 08:27:02;;;;;;;9.83;2.33;;;6.20;99.90;;;;;;5087901;28;20225;-81
2022/03/17 08:29:29;;;;;;;7.30;1.97;;;6.30;99.90;;;;;;5093186;28;20198;-81
2022/03/17 08:31:56;;;;;;;5.53;2.07;;;6.60;99.90;;;;;;5089149;28;20204;-81
2022/03/17 08:34:23;;;;;;;6.80;2.13;;;6.60;99.90;;;;;;5080486;28;20206;-81
2022/03/17 08:36:53;;;;;;;6.50;1.93;;;6.60;99.90;;;;;;5094509;28;20197;-81
2022/03/17 08:39:21;;;;;;;8.43;2.17;;;6.70;99.90;;;;;;5093319;28;20236;-82
2022/03/17 08:41:48;;;;;;;6.60;1.90;;;6.70;99.90;;;;;;5089561;28;20222;-81
2022/03/17 08:44:15;;;;;;;5.93;1.70;;;6.80;99.90;;;;;;5084248;28;20226;-82
2022/03/17 08:49:26;;;;;;;7.70;2.40;;;6.80;99.90;;;;;;5084876;28;20220;-82
2022/03/17 08:51:56;;;;;;;5.43;2.43;;;6.80;99.90;;;;;;5087252;28;20198;-81
2022/03/17 08:54:27;;;;;;;7.07;2.20;;;6.80;99.90;;;;;;5124918;27;21040;-82
2022/03/17 08:56:59;;;;;;;4.43;2.13;;;6.80;99.90;;;;;;5084755;28;20282;-82
2022/03/17 08:59:28;;;;;;;5.97;1.77;;;6.90;99.90;;;;;;5078073;28;20649;-82
2022/03/17 09:01:55;;;;;;;6.73;2.17;;;7.00;99.90;;;;;;5089804;28;20226;-82
2022/03/17 09:04:22;;;;;;;3.60;1.70;;;7.30;99.90;;;;;;5085940;28;20629;-81
2022/03/17 09:06:49;;;;;;;7.23;1.87;;;7.20;99.90;;;;;;5101940;28;20285;-80
2022/03/17 09:09:16;;;;;;;4.73;1.73;;;7.50;99.90;;;;;;5082187;28;20921;-81
2022/03/17 09:11:45;;;;;;;6.67;2.10;;;7.50;99.90;;;;;;5084579;28;20248;-81
2022/03/17 09:14:14;;;;;;;5.63;1.67;;;7.40;99.90;;;;;;5095755;28;20220;-82
2022/03/17 09:16:41;;;;;;;6.70;2.10;;;7.60;99.90;;;;;;5086254;28;20202;-82
2022/03/17 09:19:07;;;;;;;4.63;1.70;;;7.70;99.90;;;;;;5084157;28;20199;-81
2022/03/17 09:21:36;;;;;;;9.93;2.53;;;7.60;99.90;;;;;;5088736;28;20313;-83
2022/03/17 09:24:03;;;;;;;9.33;2.00;;;7.60;99.90;;;;;;5092220;28;20749;-83
2022/03/17 09:26:31;;;;;;;6.13;2.10;;;7.80;99.90;;;;;;5087872;28;20200;-83
2022/03/17 09:29:00;;;;;;;8.40;2.60;;;7.70;99.90;;;;;;5085424;28;20229;-83
2022/03/17 09:31:27;;;;;;;5.87;2.00;;;7.60;99.90;;;;;;5089660;28;20240;-83
2022/03/17 09:33:54;;;;;;;8.87;2.20;;;8.00;99.90;;;;;;5075982;28;20273;-82
2022/03/17 09:36:21;;;;;;;8.17;2.40;;;8.00;99.90;;;;;;5092895;28;20234;-83
2022/03/17 09:39:39;;;;;;;4.60;1.70;;;7.90;99.90;;;;;;5090043;28;20229;-83
2022/03/17 09:41:37;;;;;;;6.93;1.80;;;8.30;99.90;;;;;;5075528;28;20223;-83
2022/03/17 09:44:06;;;;;;;12.80;3.10;;;8.40;99.90;;;;;;5078502;28;20283;-83
2022/03/17 09:46:35;;;;;;;8.77;2.00;;;8.60;99.90;;;;;;5082664;28;20673;-83
2022/03/17 09:49:04;;;;;;;6.47;2.27;;;8.50;99.90;;;;;;5093093;28;20229;-83
2022/03/17 09:51:31;;;;;;;5.77;1.80;;;8.50;99.90;;;;;;5093001;28;20212;-83
2022/03/17 09:54:00;;;;;;;8.30;2.03;;;8.60;99.90;;;;;;5080259;28;20285;-84
2022/03/17 09:56:28;;;;;;;5.57;1.90;;;;;;;;;;5084596;28;20198;-82
2022/03/17 09:58:55;;;;;;;4.83;1.83;;;;;;;;;;5081303;28;20249;-83
2022/03/17 10:01:26;;;;;;;5.93;2.27;;;;;;;;;;5082968;28;20321;-82
2022/03/17 10:03:58;;;;;;;7.17;2.10;;;;;;;;;;5084664;28;20195;-83
2022/03/17 10:06:25;;;;;;;6.80;2.00;;;;;;;;;;5091544;28;20678;-83
2022/03/17 10:08:54;;;;;;;7.03;2.00;;;;;;;;;;5079073;28;20298;-84
2022/03/17 10:11:26;;;;;;;8.77;2.47;;;;;;;;;;5112515;27;20209;-85
2022/03/17 10:13:54;;;;;;;8.80;2.20;;;;;;;;;;5081388;28;20283;-85
2022/03/17 10:16:22;;;;;;;5.83;1.97;;;;;;;;;;5081811;28;20208;-84
2022/03/17 10:18:58;;;;;;;6.60;1.90;;;;;;;;;;5085321;28;20299;-83
2022/03/17 10:21:26;;;;;;;8.50;2.07;;;;;;;;;;5079163;28;20250;-82
2022/03/17 10:23:54;;;;;;;4.27;1.90;;;;;;;;;;5085805;28;20203;-82
2022/03/17 10:26:32;;;;;;;4.33;1.83;;;;;;;;;;5091058;28;20203;-82
2022/03/17 10:29:07;;;;;;;5.83;1.93;;;;;;;;;;5078526;28;20227;-83
2022/03/17 10:31:49;;;;;;;4.40;1.50;;;;;;;;;;5085837;28;20281;-83
2022/03/17 10:34:18;;;;;;;4.10;1.70;;;;;;;;;;5071976;28;20282;-82
2022/03/17 10:36:47;;;;;;;6.73;1.83;;;;;;;;;;5080559;28;20970;-82
2022/03/17 10:39:14;;;;;;;5.77;1.70;;;;;;;;;;5073746;28;20207;-82
2022/03/17 10:41:42;;;;;;;2.93;1.67;;;;;;;;;;5089178;28;20407;-82
2022/03/17 10:44:12;;;;;;;4.67;1.60;;;;;;;;;;5077592;28;20236;-82
2022/03/17 10:46:40;;;;;;;6.27;2.10;;;;;;;;;;5082294;28;20288;-83
2022/03/17 10:49:08;;;;;;;4.20;1.70;;;;;;;;;;5086123;28;20827;-83
2022/03/17 10:51:38;;;;;;;3.93;1.70;;;;;;;;;;5086741;28;20195;-83
2022/03/17 10:54:09;;;;;;;5.10;1.63;;;;;;;;;;5072514;28;20234;-82
2022/03/17 10:56:37;;;;;;;5.43;2.00;;;;;;;;;;5082680;28;20675;-82
2022/03/17 10:59:05;;;;;;;3.53;1.90;;;;;;;;;;5100161;28;20226;-83
2022/03/17 11:01:38;;;;;;;4.67;2.00;;;;;;;;;;5092134;28;20222;-82
2022/03/17 11:04:06;;;;;;;5.13;2.00;;;;;;;;;;5076340;28;20198;-83
2022/03/17 11:06:33;;;;;;;3.57;2.00;;;;;;;;;;5076045;28;20260;-83
2022/03/17 11:09:02;;;;;;;4.33;1.93;;;;;;;;;;5077439;28;20230;-82
2022/03/17 11:11:29;;;;;;;5.07;1.97;;;;;;;;;;5075131;28;20187;-81
2022/03/17 11:13:57;;;;;;;3.77;1.83;;;;;;;;;;5088236;28;20290;-83
2022/03/17 11:16:30;;;;;;;6.03;2.50;;;;;;;;;;5086004;28;20837;-82
2022/03/17 11:18:58;;;;;;;5.97;2.23;;;;;;;;;;5077745;28;20626;-82
2022/03/17 11:21:28;;;;;;;4.80;1.77;;;;;;;;;;5087123;28;20277;-82
2022/03/17 11:23:59;;;;;;;5.07;1.90;;;;;;;;;;5088335;28;20198;-83
2022/03/17 11:26:34;;;;;;;4.80;1.80;;;;;;;;;;5098798;28;20198;-82
2022/03/17 11:29:06;;;;;;;5.10;1.80;;;;;;;;;;5093770;28;20239;-83
2022/03/17 11:31:57;;;;;;;6.13;2.00;;;;;;;;;;5074160;28;20187;-82
2022/03/17 11:34:46;;;;;;;4.27;2.03;;;;;;;;;;5071140;28;20237;-85
2022/03/17 11:37:31;;;;;;;5.83;2.13;;;;;;;;;;5073002;28;20281;-85
2022/03/17 11:40:00;;;;;;;4.33;1.70;;;;;;;;;;5085929;28;20250;-84
2022/03/17 11:42:36;;;;;;;5.83;1.70;;;;;;;;;;5084180;28;20290;-85
2022/03/17 11:45:04;;;;;;;5.43;2.00;;;;;;;;;;5076195;28;21063;-85
2022/03/17 11:47:38;;;;;;;3.53;1.80;;;;;;;;;;5085873;28;20222;-84
2022/03/17 11:50:25;;;;;;;4.90;1.87;;;;;;;;;;5083939;28;20742;-83
2022/03/17 11:52:53;;;;;;;7.13;2.13;;;;;;;;;;5082175;28;20202;-83
2022/03/17 11:55:34;;;;;;;4.67;1.60;;;;;;;;;;5090109;28;20697;-86
2022/03/17 11:58:20;;;;;;;3.83;2.00;;;;;;;;;;5082363;28;20289;-84
2022/03/17 12:00:49;;;;;;;6.03;2.10;;;;;;;;;;5074375;28;20219;-85
2022/03/17 12:03:26;;;;;;;6.13;1.77;;;;;;;;;;5083383;28;20202;-85
2022/03/17 12:06:05;;;;;;;4.30;2.03;;;;;;;;;;5086624;28;20194;-85
2022/03/17 12:08:35;;;;;;;6.97;2.87;;;;;;;;;;5083383;28;20225;-85
2022/03/17 12:11:08;;;;;;;6.30;2.00;;;;;;;;;;5080828;28;20308;-83
2022/03/17 12:13:36;;;;;;;5.20;2.73;;;;;;;;;;5085160;28;20685;-83
2022/03/17 12:16:05;;;;;;;7.13;2.40;;;;;;;;;;5097173;28;20239;-82
2022/03/17 12:18:47;;;;;;;4.33;2.60;;;;;;;;;;5074994;28;20614;-83
2022/03/17 12:21:15;;;;;;;5.10;2.50;;;;;;;;;;5081043;28;20261;-83
2022/03/17 12:23:46;;;;;;;6.40;2.47;;;;;;;;;;5079658;28;20230;-83
2022/03/17 12:26:14;;;;;;;6.60;2.50;;;;;;;;;;5078885;28;20206;-83
2022/03/17 12:28:45;;;;;;;5.07;2.30;;;;;;;;;;5084614;28;20628;-83
2022/03/17 12:31:14;;;;;;;5.37;2.50;;;;;;;;;;5072491;28;20278;-83
2022/03/17 12:33:41;;;;;;;5.13;2.37;;;;;;;;;;5083825;28;20195;-83
2022/03/17 12:36:08;;;;;;;5.63;2.57;;;;;;;;;;5086919;28;20191;-83
2022/03/17 12:38:35;;;;;;;5.23;2.20;;;;;;;;;;5077773;28;20285;-83
2022/03/17 12:41:03;;;;;;;4.97;2.03;;;;;;;;;;5087180;28;20249;-83
2022/03/17 12:43:34;;;;;;;9.10;2.43;;;;;;;;;;5089963;28;20281;-84
2022/03/17 12:46:02;;;;;;;5.40;2.27;;;;;;;;;;5076005;28;20229;-84
2022/03/17 12:48:32;;;;;;;5.53;2.30;;;;;;;;;;5079578;28;20687;-83
2022/03/17 12:51:05;;;;;;;6.30;2.50;;;;;;;;;;5077655;28;20696;-84
2022/03/17 12:53:32;;;;;;;6.77;2.60;;;;;;;;;;5071884;28;20381;-84
2022/03/17 12:55:59;;;;;;;6.93;2.47;;;;;;;;;;5082992;28;20199;-82
2022/03/17 12:58:27;;;;;;;4.97;2.07;;;;;;;;;;5079745;28;20219;-82
2022/03/17 13:00:54;;;;;;;4.83;2.50;;;;;;;;;;5086906;28;20761;-82
2022/03/17 13:03:25;;;;;;;6.07;2.23;;;12.60;99.90;;;;;;5086078;28;20226;-83
2022/03/17 13:08:39;;;;;;;6.13;2.63;;;12.60;99.90;;;;;;5089497;28;20244;-82
2022/03/17 13:16:42;;;;;;;5.03;2.53;;;12.70;99.90;;;;;;5093162;28;20201;-82
2022/03/17 13:19:10;;;;;;;6.57;2.90;;;12.40;99.90;;;;;;5089778;28;20234;-83
2022/03/17 13:21:38;;;;;;;5.50;2.20;;;12.90;99.90;;;;;;5090993;28;20262;-83
2022/03/17 13:24:15;;;;;;;5.07;2.30;;;13.20;99.90;;;;;;5093519;28;20222;-82
2022/03/17 13:26:42;;;;;;;5.63;2.10;;;12.70;99.90;;;;;;5075502;28;20203;-82
2022/03/17 13:29:14;;;;;;;5.13;2.17;;;12.70;99.90;;;;;;5077580;28;20223;-83
2022/03/17 13:31:46;;;;;;;6.33;2.17;;;12.50;99.90;;;;;;5090192;28;20210;-83
2022/03/17 13:34:27;;;;;;;5.03;2.10;;;12.70;99.90;;;;;;5085358;28;20215;-83
2022/03/17 13:36:57;;;;;;;3.20;1.77;;;12.60;99.90;;;;;;5092204;28;20205;-82
2022/03/17 13:39:33;;;;;;;5.33;2.20;;;12.90;99.90;;;;;;5074996;28;20234;-83
2022/03/17 13:42:05;;;;;;;4.73;2.03;;;13.40;99.90;;;;;;5083120;28;20213;-82
2022/03/17 13:44:49;;;;;;;4.17;2.20;;;13.70;99.90;;;;;;5078781;28;20281;-82
2022/03/17 13:47:18;;;;;;;4.50;2.20;;;12.60;99.90;;;;;;5085351;28;20210;-82
2022/03/17 13:50:09;;;;;;;7.53;2.30;;;12.90;99.90;;;;;;5088972;28;20205;-82
2022/03/17 13:52:39;;;;;;;4.40;2.13;;;13.30;99.90;;;;;;5081220;28;20198;-82
2022/03/17 13:55:09;;;;;;;4.80;2.17;;;13.00;99.90;;;;;;5094812;28;20631;-82
2022/03/17 13:57:36;;;;;;;5.13;2.20;;;12.80;99.90;;;;;;5094135;28;20230;-82
2022/03/17 14:00:23;;;;;;;4.77;2.20;;;13.30;99.90;;;;;;5086432;28;20607;-82
2022/03/17 14:03:12;;;;;;;4.80;2.00;;;13.60;99.90;;;;;;5088540;28;20203;-82